Here is the Quick Look data you requested

The Data originates at the National Weather Service, and is made available here by the UAlbany Department of Atmospheric and Environmental Sciences

Surface Observations

PAKU 250245Z 34003KT 7SM R24/P6000FT BKN006 M15/M17 A3005 RMK LAST=